createdAt,value
2023-05-02T00:02:23.022Z,59.84
2023-05-02T00:04:49.569Z,60.23
2023-05-02T00:07:15.970Z,60.79
2023-05-02T00:09:42.433Z,61.25
2023-05-02T00:12:08.825Z,61.34
2023-05-02T00:14:35.282Z,61.23
2023-05-02T00:17:03.175Z,60.56
2023-05-02T00:19:29.684Z,60.44
2023-05-02T00:21:56.117Z,60.55
2023-05-02T00:24:22.511Z,60.76
2023-05-02T00:26:48.994Z,60.96
2023-05-02T00:29:15.476Z,61.06
2023-05-02T00:31:41.932Z,60.70
2023-05-02T00:34:08.500Z,60.50
2023-05-02T00:36:34.953Z,60.34
2023-05-02T00:39:04.330Z,59.91
2023-05-02T00:41:30.752Z,60.34
2023-05-02T00:43:57.286Z,60.32
2023-05-02T00:46:23.867Z,59.90
2023-05-02T00:48:50.525Z,59.97
2023-05-02T00:51:17.037Z,59.87
2023-05-02T00:53:43.508Z,60.21
2023-05-02T00:56:09.973Z,60.86
2023-05-02T00:58:36.507Z,60.84
2023-05-02T01:01:02.980Z,61.11
2023-05-02T01:03:29.524Z,60.99
2023-05-02T01:05:56.045Z,61.01
2023-05-02T01:08:22.430Z,61.34
2023-05-02T01:10:48.960Z,61.11
2023-05-02T01:13:15.401Z,61.38
2023-05-02T01:15:41.864Z,60.96
2023-05-02T01:18:08.366Z,60.16
2023-05-02T01:20:34.835Z,59.79
2023-05-02T01:23:01.251Z,59.39
2023-05-02T01:25:27.643Z,59.48
2023-05-02T01:27:54.117Z,59.11
2023-05-02T01:30:20.646Z,59.00
2023-05-02T01:32:47.198Z,58.52
2023-05-02T01:35:13.684Z,58.80
2023-05-02T01:37:40.225Z,58.12
2023-05-02T01:40:06.638Z,59.03
2023-05-02T01:42:33.084Z,59.60
2023-05-02T01:44:59.428Z,59.24
2023-05-02T01:47:27.312Z,59.35
2023-05-02T01:49:53.736Z,58.71
2023-05-02T01:52:20.209Z,58.77
2023-05-02T01:54:46.629Z,59.03
2023-05-02T01:57:13.043Z,58.27
2023-05-02T01:59:39.581Z,58.25
2023-05-02T02:02:11.180Z,58.65
2023-05-02T02:04:37.750Z,58.72
2023-05-02T02:07:04.253Z,60.07
2023-05-02T02:09:30.738Z,59.83
2023-05-02T02:11:57.163Z,60.01
2023-05-02T02:14:23.593Z,60.41
2023-05-02T02:16:50.118Z,59.71
2023-05-02T02:19:16.709Z,59.34
2023-05-02T02:21:43.172Z,59.13
2023-05-02T02:24:09.655Z,59.08
2023-05-02T02:26:36.133Z,59.30
2023-05-02T02:29:02.684Z,59.58
2023-05-02T02:31:29.262Z,60.32
2023-05-02T02:33:55.797Z,60.86
2023-05-02T02:36:22.298Z,59.67
2023-05-02T02:38:48.756Z,59.72
2023-05-02T02:41:15.265Z,59.97
2023-05-02T02:43:41.732Z,59.52
2023-05-02T02:46:08.283Z,59.37
2023-05-02T02:48:34.805Z,58.88
2023-05-02T02:51:01.186Z,59.32
2023-05-02T02:53:27.607Z,59.11
2023-05-02T02:55:54.032Z,59.25
2023-05-02T02:58:20.462Z,59.37
2023-05-02T03:00:46.836Z,59.06
2023-05-02T03:03:13.473Z,58.94
2023-05-02T03:05:40.043Z,58.92
2023-05-02T03:08:06.468Z,59.64
2023-05-02T03:10:32.980Z,59.74
2023-05-02T03:15:39.823Z,59.13
2023-05-02T03:18:06.322Z,58.50
2023-05-02T03:20:38.882Z,58.93
2023-05-02T03:23:05.448Z,61.36
2023-05-02T03:25:31.953Z,62.01
2023-05-02T03:27:58.381Z,62.22
2023-05-02T03:30:25.139Z,61.66
2023-05-02T03:32:57.537Z,61.90
2023-05-02T03:35:25.947Z,61.81
2023-05-02T03:37:52.434Z,61.60
2023-05-02T03:40:18.858Z,61.62
2023-05-02T03:42:45.300Z,59.90
2023-05-02T03:45:11.744Z,59.92
2023-05-02T03:47:38.258Z,59.66
2023-05-02T03:50:04.801Z,59.25
2023-05-02T03:52:31.286Z,59.88
2023-05-02T03:54:57.803Z,59.27
2023-05-02T03:57:24.229Z,59.28
2023-05-02T03:59:52.371Z,60.03
2023-05-02T04:02:18.828Z,59.26
2023-05-02T04:04:45.376Z,59.45
2023-05-02T04:07:11.853Z,59.54
2023-05-02T04:09:38.287Z,59.58
2023-05-02T04:12:04.760Z,60.22
2023-05-02T04:14:31.137Z,60.36
2023-05-02T04:16:57.609Z,59.52
2023-05-02T04:19:24.099Z,59.67
2023-05-02T04:21:50.604Z,60.20
2023-05-02T04:24:16.985Z,60.61
2023-05-02T04:26:43.450Z,59.98
2023-05-02T04:29:10.010Z,59.94
2023-05-02T04:31:36.601Z,59.84
2023-05-02T04:34:03.281Z,59.89
2023-05-02T04:36:29.828Z,60.16
2023-05-02T04:38:56.404Z,60.36
2023-05-02T04:41:22.979Z,60.52
2023-05-02T04:43:49.558Z,60.59
2023-05-02T04:46:15.988Z,60.26
2023-05-02T04:48:42.442Z,60.27
2023-05-02T04:51:08.845Z,60.34
2023-05-02T04:53:35.242Z,60.08
2023-05-02T04:56:01.705Z,60.50
2023-05-02T04:58:28.488Z,60.38
2023-05-02T05:00:57.110Z,60.03
2023-05-02T05:03:32.789Z,60.13
2023-05-02T05:08:50.838Z,60.24
2023-05-02T05:11:17.347Z,60.35
2023-05-02T05:13:43.872Z,60.24
2023-05-02T05:16:13.500Z,60.25
2023-05-02T05:18:44.443Z,60.15
2023-05-02T05:21:10.912Z,60.64
2023-05-02T05:23:37.323Z,60.50
2023-05-02T05:26:03.767Z,60.30
2023-05-02T05:28:30.306Z,60.79
2023-05-02T05:30:56.762Z,63.68
2023-05-02T05:33:23.257Z,64.89
2023-05-02T05:35:49.724Z,65.50
2023-05-02T05:38:16.230Z,65.02
2023-05-02T05:43:32.956Z,64.67
2023-05-02T05:45:59.405Z,64.25
2023-05-02T05:48:25.874Z,64.36
2023-05-02T05:53:42.884Z,65.46
2023-05-02T05:59:11.789Z,65.11
2023-05-02T06:01:38.267Z,65.09
2023-05-02T06:04:05.055Z,65.31
2023-05-02T06:06:31.701Z,65.02
2023-05-02T06:08:58.205Z,64.47
2023-05-02T06:11:24.647Z,64.01
2023-05-02T06:13:51.081Z,62.67
2023-05-02T06:16:17.648Z,62.33
2023-05-02T06:18:44.250Z,61.95
2023-05-02T06:21:10.688Z,62.19
2023-05-02T06:23:40.108Z,62.15
2023-05-02T06:26:06.548Z,62.03
2023-05-02T06:28:32.997Z,62.20
2023-05-02T06:30:59.669Z,61.75
2023-05-02T06:33:26.128Z,61.64
2023-05-02T06:35:52.496Z,61.48
2023-05-02T06:38:19.100Z,61.10
2023-05-02T06:40:45.523Z,61.04
2023-05-02T06:43:11.869Z,61.59
2023-05-02T06:45:38.215Z,61.72
2023-05-02T06:48:04.652Z,61.92
2023-05-02T06:50:37.195Z,62.19
2023-05-02T06:53:03.669Z,61.80
2023-05-02T06:55:30.096Z,60.28
2023-05-02T06:57:56.469Z,60.99
2023-05-02T07:00:23.002Z,63.46
2023-05-02T07:02:52.217Z,63.27
2023-05-02T07:05:26.853Z,63.68
2023-05-02T07:07:53.332Z,63.53
2023-05-02T07:10:19.856Z,63.26
2023-05-02T07:12:46.363Z,63.80
2023-05-02T07:15:12.905Z,64.33
2023-05-02T07:17:39.373Z,63.81
2023-05-02T07:20:05.962Z,63.90
2023-05-02T07:22:32.423Z,64.17
2023-05-02T07:24:59.877Z,64.36
2023-05-02T07:27:41.620Z,64.22
2023-05-02T07:30:08.670Z,63.77
2023-05-02T07:32:35.263Z,64.39
2023-05-02T07:35:01.952Z,64.57
2023-05-02T07:37:28.428Z,64.18
2023-05-02T07:39:54.882Z,64.30
2023-05-02T07:42:22.668Z,64.48
2023-05-02T07:44:53.009Z,64.29
2023-05-02T07:47:19.565Z,64.38
2023-05-02T07:49:45.993Z,64.50
2023-05-02T07:52:12.428Z,62.27
2023-05-02T07:54:38.877Z,61.76
2023-05-02T07:57:05.341Z,61.45
2023-05-02T07:59:31.832Z,61.97
2023-05-02T08:01:58.323Z,61.87
2023-05-02T08:04:28.360Z,60.87
2023-05-02T08:06:55.125Z,59.90
2023-05-02T08:09:24.331Z,58.33
2023-05-02T08:11:50.867Z,57.76
2023-05-02T08:14:17.285Z,58.91
2023-05-02T08:16:45.576Z,59.28
2023-05-02T08:19:12.995Z,59.95
2023-05-02T08:21:39.559Z,59.88
2023-05-02T08:24:06.039Z,59.16
2023-05-02T08:26:32.471Z,58.78
2023-05-02T08:28:59.000Z,58.13
2023-05-02T08:31:25.528Z,58.28
2023-05-02T08:33:52.000Z,57.54
2023-05-02T08:36:18.476Z,58.04
2023-05-02T08:38:44.987Z,57.00
2023-05-02T08:41:11.472Z,56.69
2023-05-02T08:43:37.906Z,55.92
2023-05-02T08:46:04.352Z,56.05
2023-05-02T08:48:30.817Z,55.80
2023-05-02T08:50:57.283Z,55.46
2023-05-02T08:53:23.694Z,55.54
2023-05-02T08:55:50.161Z,55.33
2023-05-02T08:58:17.712Z,55.78
2023-05-02T09:00:44.283Z,55.06
2023-05-02T09:03:10.876Z,54.74
2023-05-02T09:05:37.385Z,55.52
2023-05-02T09:08:03.831Z,54.98
2023-05-02T09:10:30.292Z,54.61
2023-05-02T09:12:56.696Z,54.73
2023-05-02T09:15:23.191Z,55.20
2023-05-02T09:17:49.685Z,55.29
2023-05-02T09:20:16.179Z,56.06
2023-05-02T09:22:42.585Z,56.08
2023-05-02T09:25:09.072Z,54.74
2023-05-02T09:27:35.612Z,55.41
2023-05-02T09:30:02.153Z,54.95
2023-05-02T09:32:28.749Z,54.55
2023-05-02T09:34:55.261Z,54.36
2023-05-02T09:37:21.654Z,53.83
2023-05-02T09:39:48.136Z,53.99
2023-05-02T09:42:14.601Z,54.37
2023-05-02T09:44:41.076Z,52.90
2023-05-02T09:47:07.492Z,52.47
2023-05-02T09:49:34.080Z,52.97
2023-05-02T09:52:00.589Z,54.35
2023-05-02T09:54:27.068Z,54.91
2023-05-02T09:56:53.549Z,54.46
2023-05-02T09:59:20.057Z,53.82
2023-05-02T10:01:46.530Z,54.24
2023-05-02T10:04:13.061Z,53.48
2023-05-02T10:06:41.222Z,53.82
2023-05-02T10:09:07.728Z,53.08
2023-05-02T10:11:34.256Z,52.29
2023-05-02T10:14:00.751Z,52.71
2023-05-02T10:16:27.221Z,52.18
2023-05-02T10:18:53.729Z,52.61
2023-05-02T10:21:22.953Z,53.53
2023-05-02T10:23:49.386Z,51.49
2023-05-02T10:26:15.936Z,52.99
2023-05-02T10:28:42.503Z,51.25
2023-05-02T10:31:09.017Z,51.51
2023-05-02T10:33:35.537Z,52.29
2023-05-02T10:36:01.993Z,51.17
2023-05-02T10:38:35.779Z,51.33
2023-05-02T10:41:02.262Z,50.02
2023-05-02T10:43:28.714Z,50.56
2023-05-02T10:45:55.191Z,50.69
2023-05-02T10:48:21.646Z,50.86
2023-05-02T10:50:48.093Z,50.47
2023-05-02T10:53:14.586Z,50.14
2023-05-02T10:55:40.960Z,50.43
2023-05-02T10:58:07.423Z,50.82
2023-05-02T11:00:34.137Z,49.85
2023-05-02T11:03:00.926Z,51.56
2023-05-02T11:05:27.392Z,50.56
2023-05-02T11:07:53.820Z,50.80
2023-05-02T11:10:20.207Z,50.46
2023-05-02T11:12:46.629Z,50.33
2023-05-02T11:15:13.095Z,49.69
2023-05-02T11:17:39.625Z,48.09
2023-05-02T11:20:06.093Z,48.59
2023-05-02T11:22:32.533Z,47.83
2023-05-02T11:24:59.160Z,47.51
2023-05-02T11:27:26.627Z,48.33
2023-05-02T11:29:53.026Z,48.47
2023-05-02T11:32:21.302Z,48.80
2023-05-02T11:34:47.894Z,47.99
2023-05-02T11:37:14.321Z,48.30
2023-05-02T11:39:40.736Z,46.90
2023-05-02T11:42:07.090Z,47.46
2023-05-02T11:44:33.545Z,47.69
2023-05-02T11:46:59.940Z,48.49
2023-05-02T11:52:10.379Z,45.75
2023-05-02T11:54:36.811Z,46.42
2023-05-02T11:57:03.212Z,46.79
2023-05-02T11:59:29.606Z,46.31
2023-05-02T12:01:56.032Z,45.63
2023-05-02T12:04:22.597Z,47.58
2023-05-02T12:06:59.989Z,47.66
2023-05-02T12:09:26.489Z,47.88
2023-05-02T12:11:53.022Z,46.40
2023-05-02T12:14:19.476Z,45.25
2023-05-02T12:16:46.090Z,45.47
2023-05-02T12:19:12.675Z,45.78
2023-05-02T12:21:39.143Z,45.16
2023-05-02T12:24:08.773Z,46.22
2023-05-02T12:26:42.601Z,45.31
2023-05-02T12:29:09.120Z,45.24
2023-05-02T12:31:35.639Z,44.64
2023-05-02T12:36:42.399Z,43.95
2023-05-02T12:39:08.838Z,45.17
2023-05-02T12:41:35.222Z,44.70
2023-05-02T12:44:01.768Z,45.28
2023-05-02T12:46:28.246Z,44.01
2023-05-02T12:48:54.658Z,42.03
2023-05-02T12:51:21.116Z,42.66
2023-05-02T12:53:52.253Z,42.46
2023-05-02T12:56:18.714Z,43.13
2023-05-02T12:58:52.690Z,43.05
2023-05-02T13:01:19.149Z,43.91
2023-05-02T13:03:45.700Z,43.50
2023-05-02T13:06:12.157Z,42.18
2023-05-02T13:08:38.639Z,41.34
2023-05-02T13:11:05.066Z,41.85
2023-05-02T13:13:33.653Z,42.36
2023-05-02T13:16:02.643Z,41.98
2023-05-02T13:18:29.160Z,41.62
2023-05-02T13:20:55.632Z,41.88
2023-05-02T13:23:22.138Z,42.59
2023-05-02T13:25:48.517Z,40.91
2023-05-02T13:28:14.929Z,40.31
2023-05-02T13:30:41.447Z,41.11
2023-05-02T13:33:07.994Z,40.98
2023-05-02T13:35:35.389Z,41.53
2023-05-02T13:38:01.922Z,40.64
2023-05-02T13:40:28.396Z,40.95
2023-05-02T13:42:54.886Z,41.50
2023-05-02T13:45:21.371Z,41.89
2023-05-02T13:47:47.882Z,41.82
2023-05-02T13:50:14.287Z,40.50
2023-05-02T13:52:40.665Z,40.80
2023-05-02T13:55:07.100Z,40.69
2023-05-02T13:57:33.743Z,40.03
2023-05-02T14:00:00.344Z,40.03
2023-05-02T14:02:27.154Z,40.81
2023-05-02T14:04:53.656Z,39.47
2023-05-02T14:07:20.038Z,39.67
2023-05-02T14:09:46.472Z,39.59
2023-05-02T14:12:12.916Z,38.54
2023-05-02T14:14:40.414Z,40.06
2023-05-02T14:17:06.901Z,40.37
2023-05-02T14:19:33.394Z,40.30
2023-05-02T14:21:59.883Z,42.90
2023-05-02T14:27:07.698Z,41.24
2023-05-02T14:29:34.179Z,41.67
2023-05-02T14:32:04.107Z,41.50
2023-05-02T14:34:30.538Z,40.28
2023-05-02T14:36:57.073Z,39.45
2023-05-02T14:39:23.585Z,40.19
2023-05-02T14:41:49.931Z,37.58
2023-05-02T14:44:16.362Z,37.36
2023-05-02T14:46:42.775Z,37.84
2023-05-02T14:51:49.499Z,35.58
2023-05-02T14:54:15.907Z,35.69
2023-05-02T14:56:42.388Z,35.68
2023-05-02T14:59:08.773Z,35.43
2023-05-02T15:01:40.343Z,36.16
2023-05-02T15:04:08.008Z,35.89
2023-05-02T15:06:35.934Z,36.43
2023-05-02T15:09:03.351Z,36.03
2023-05-02T15:11:29.950Z,35.95
2023-05-02T15:13:58.453Z,35.37
2023-05-02T15:16:25.771Z,35.52
2023-05-02T15:18:52.197Z,35.74
2023-05-02T15:21:18.634Z,35.88
2023-05-02T15:23:47.254Z,34.85
2023-05-02T15:26:14.094Z,33.92
2023-05-02T15:31:21.404Z,34.32
2023-05-02T15:33:48.131Z,34.40
2023-05-02T15:36:14.566Z,33.84
2023-05-02T15:38:41.534Z,34.28
2023-05-02T15:41:08.046Z,34.06
2023-05-02T15:43:34.966Z,33.13
2023-05-02T15:46:03.647Z,34.04
2023-05-02T15:48:30.342Z,33.23
2023-05-02T15:50:56.891Z,33.91
2023-05-02T15:53:23.356Z,33.20
2023-05-02T15:55:49.798Z,33.26
2023-05-02T15:58:16.228Z,34.31
2023-05-02T16:00:42.696Z,32.73
2023-05-02T16:03:09.151Z,29.21
2023-05-02T16:05:35.793Z,28.17
2023-05-02T16:08:07.552Z,26.51
2023-05-02T16:10:34.053Z,28.06
2023-05-02T16:13:00.523Z,25.76
2023-05-02T16:15:27.128Z,24.82
2023-05-02T16:17:53.701Z,24.71
2023-05-02T16:20:20.109Z,25.68
2023-05-02T16:22:46.504Z,26.53
2023-05-02T16:25:27.905Z,27.25
2023-05-02T16:27:54.338Z,28.95
2023-05-02T16:30:20.781Z,29.66
2023-05-02T16:32:47.239Z,26.33
2023-05-02T16:35:13.750Z,25.80
2023-05-02T16:37:40.213Z,25.63
2023-05-02T16:40:07.202Z,24.55
2023-05-02T16:42:33.966Z,26.83
2023-05-02T16:45:00.401Z,27.55
2023-05-02T16:47:26.985Z,27.66
2023-05-02T16:49:53.501Z,27.92
2023-05-02T16:52:19.997Z,28.23
2023-05-02T16:54:46.497Z,28.99
2023-05-02T16:57:12.954Z,29.77
2023-05-02T16:59:39.501Z,31.31
2023-05-02T17:02:06.057Z,30.36
2023-05-02T17:04:32.536Z,32.17
2023-05-02T17:06:59.054Z,32.08
2023-05-02T17:09:25.562Z,31.31
2023-05-02T17:11:52.076Z,30.21
2023-05-02T17:14:18.460Z,30.36
2023-05-02T17:16:44.968Z,30.30
2023-05-02T17:19:11.617Z,30.03
2023-05-02T17:21:38.155Z,30.19
2023-05-02T17:24:05.457Z,29.87
2023-05-02T17:26:39.943Z,28.72
2023-05-02T17:29:06.405Z,29.79
2023-05-02T17:31:32.991Z,29.80
2023-05-02T17:33:59.626Z,30.06
2023-05-02T17:36:26.251Z,28.79
2023-05-02T17:38:52.765Z,29.47
2023-05-02T17:41:19.272Z,28.83
2023-05-02T17:43:45.986Z,29.23
2023-05-02T17:46:13.876Z,29.09
2023-05-02T17:48:40.448Z,30.17
2023-05-02T17:51:07.026Z,30.11
2023-05-02T17:53:33.650Z,29.76
2023-05-02T17:56:00.128Z,30.48
2023-05-02T17:58:26.542Z,30.56
2023-05-02T18:00:53.028Z,31.25
2023-05-02T18:03:20.682Z,31.05
2023-05-02T18:05:47.158Z,31.84
2023-05-02T18:08:13.751Z,31.68
2023-05-02T18:10:40.168Z,32.07
2023-05-02T18:13:06.737Z,32.03
2023-05-02T18:15:33.168Z,32.42
2023-05-02T18:17:59.645Z,32.26
2023-05-02T18:20:26.107Z,32.28
2023-05-02T18:22:52.612Z,32.05
2023-05-02T18:25:19.070Z,32.13
2023-05-02T18:27:45.531Z,32.60
2023-05-02T18:30:12.038Z,32.88
2023-05-02T18:32:38.533Z,33.05
2023-05-02T18:35:05.060Z,33.53
2023-05-02T18:37:31.819Z,34.08
2023-05-02T18:39:58.309Z,34.35
2023-05-02T18:42:24.924Z,33.94
2023-05-02T18:44:51.820Z,34.21
2023-05-02T18:47:18.268Z,34.41
2023-05-02T18:49:44.739Z,33.92
2023-05-02T18:52:11.695Z,33.78
2023-05-02T18:54:39.473Z,34.12
2023-05-02T18:57:10.782Z,33.77
2023-05-02T18:59:40.252Z,33.69
2023-05-02T19:02:06.677Z,33.75
2023-05-02T19:04:34.647Z,34.58
2023-05-02T19:07:01.046Z,34.46
2023-05-02T19:09:27.493Z,34.11
2023-05-02T19:11:54.001Z,34.06
2023-05-02T19:14:21.001Z,34.55
2023-05-02T19:19:27.661Z,34.31
2023-05-02T19:21:54.126Z,35.11
2023-05-02T19:24:20.601Z,34.78
2023-05-02T19:26:47.066Z,35.18
2023-05-02T19:29:13.942Z,34.84
2023-05-02T19:31:40.370Z,34.74
2023-05-02T19:34:06.855Z,35.14
2023-05-02T19:36:33.305Z,34.40
2023-05-02T19:38:59.817Z,36.55
2023-05-02T19:41:26.218Z,36.04
2023-05-02T19:43:52.653Z,34.84
2023-05-02T19:46:19.164Z,35.41
2023-05-02T19:48:45.690Z,35.88
2023-05-02T19:51:12.157Z,36.53
2023-05-02T19:53:38.604Z,34.60
2023-05-02T19:56:05.018Z,35.12
2023-05-02T19:58:34.145Z,34.64
2023-05-02T20:01:00.707Z,34.49
2023-05-02T20:03:27.275Z,34.69
2023-05-02T20:05:53.774Z,34.47
2023-05-02T20:08:21.525Z,34.41
2023-05-02T20:10:49.278Z,34.75
2023-05-02T20:13:15.742Z,34.98
2023-05-02T20:15:42.178Z,34.60
2023-05-02T20:18:08.597Z,34.41
2023-05-02T20:20:35.064Z,35.53
2023-05-02T20:23:01.484Z,37.00
2023-05-02T20:25:27.866Z,36.32
2023-05-02T20:27:54.277Z,36.33
2023-05-02T20:30:20.720Z,37.07
2023-05-02T20:32:47.369Z,37.47
2023-05-02T20:37:54.120Z,37.27
2023-05-02T20:40:20.510Z,36.49
2023-05-02T20:42:46.932Z,35.98
2023-05-02T20:45:13.285Z,36.57
2023-05-02T20:47:39.670Z,37.00
2023-05-02T20:50:06.146Z,35.77
2023-05-02T20:52:40.015Z,35.40
2023-05-02T20:55:06.542Z,34.66
2023-05-02T20:57:33.020Z,36.17
2023-05-02T21:00:07.150Z,37.41
2023-05-02T21:02:33.693Z,36.71
2023-05-02T21:05:00.153Z,34.76
2023-05-02T21:10:06.792Z,34.15
2023-05-02T21:12:33.173Z,35.66
2023-05-02T21:14:59.566Z,37.28
2023-05-02T21:17:26.108Z,38.85
2023-05-02T21:19:52.619Z,38.62
2023-05-02T21:22:19.013Z,38.96
2023-05-02T21:24:45.394Z,38.78
2023-05-02T21:27:11.842Z,38.95
2023-05-02T21:29:38.304Z,38.62
2023-05-02T21:32:04.815Z,38.99
2023-05-02T21:34:31.365Z,38.99
2023-05-02T21:36:57.836Z,39.28
2023-05-02T21:39:24.314Z,39.33
2023-05-02T21:41:50.737Z,39.27
2023-05-02T21:44:17.175Z,38.98
2023-05-02T21:46:46.568Z,39.24
2023-05-02T21:49:15.732Z,38.12
2023-05-02T21:51:42.190Z,39.07
2023-05-02T21:54:08.599Z,38.96
2023-05-02T21:56:34.947Z,39.32
2023-05-02T21:59:01.278Z,39.31
2023-05-02T22:01:27.678Z,39.55
2023-05-02T22:03:54.149Z,39.47
2023-05-02T22:06:20.644Z,39.66
2023-05-02T22:08:48.264Z,40.15
2023-05-02T22:11:14.680Z,40.24
2023-05-02T22:13:41.096Z,39.89
2023-05-02T22:16:07.736Z,39.62
2023-05-02T22:18:34.262Z,39.74
2023-05-02T22:21:00.706Z,38.96
2023-05-02T22:23:27.122Z,39.67
2023-05-02T22:25:53.513Z,39.41
2023-05-02T22:28:19.945Z,39.57
2023-05-02T22:30:46.471Z,39.29
2023-05-02T22:33:12.965Z,40.15
2023-05-02T22:35:39.463Z,39.94
2023-05-02T22:38:05.837Z,39.75
2023-05-02T22:40:32.264Z,39.54
2023-05-02T22:42:58.792Z,39.80
2023-05-02T22:45:25.204Z,40.46
2023-05-02T22:47:51.636Z,41.16
2023-05-02T22:50:18.118Z,41.27
2023-05-02T22:52:44.527Z,41.31
2023-05-02T22:55:11.074Z,40.76
2023-05-02T23:00:17.896Z,40.08
2023-05-02T23:02:44.440Z,40.57
2023-05-02T23:05:10.952Z,39.55
2023-05-02T23:07:37.448Z,40.14
2023-05-02T23:10:04.105Z,41.02
2023-05-02T23:12:30.864Z,40.63
2023-05-02T23:14:58.422Z,41.71
2023-05-02T23:17:32.480Z,42.77
2023-05-02T23:19:59.417Z,42.98
2023-05-02T23:22:25.966Z,42.77
2023-05-02T23:24:52.378Z,43.44
2023-05-02T23:27:18.900Z,43.04
2023-05-02T23:29:45.401Z,42.85
2023-05-02T23:32:11.788Z,43.85
2023-05-02T23:34:38.255Z,43.94
2023-05-02T23:37:04.762Z,42.64
2023-05-02T23:39:31.153Z,42.86
2023-05-02T23:41:57.619Z,42.39
2023-05-02T23:44:24.059Z,42.32
2023-05-02T23:46:50.627Z,42.71
2023-05-02T23:49:17.257Z,42.27
2023-05-02T23:51:43.978Z,42.92
2023-05-02T23:54:14.054Z,43.88
2023-05-02T23:56:49.572Z,43.18
2023-05-02T23:59:22.936Z,42.99
